createdAt,value
2022-10-10T00:00:49.932Z,6.57
2022-10-10T00:03:19.587Z,6.30
2022-10-10T00:05:47.380Z,6.50
2022-10-10T00:08:15.099Z,6.40
2022-10-10T00:10:42.777Z,6.30
2022-10-10T00:13:13.424Z,6.07
2022-10-10T00:15:42.243Z,5.87
2022-10-10T00:18:12.375Z,5.43
2022-10-10T00:20:40.161Z,5.00
2022-10-10T00:23:08.033Z,5.53
2022-10-10T00:25:35.748Z,5.07
2022-10-10T00:28:03.563Z,4.80
2022-10-10T00:30:32.848Z,6.43
2022-10-10T00:33:00.961Z,4.30
2022-10-10T00:35:29.653Z,4.60
2022-10-10T00:37:57.402Z,4.10
2022-10-10T00:40:25.245Z,4.80
2022-10-10T00:42:53.395Z,4.40
2022-10-10T00:45:33.834Z,4.00
2022-10-10T00:48:05.820Z,4.30
2022-10-10T00:50:36.971Z,4.83
2022-10-10T00:53:07.908Z,4.80
2022-10-10T00:55:35.987Z,4.27
2022-10-10T00:58:04.770Z,4.30
2022-10-10T01:00:33.829Z,5.47
2022-10-10T01:03:01.935Z,4.13
2022-10-10T01:05:30.300Z,4.30
2022-10-10T01:07:58.134Z,4.60
2022-10-10T01:10:26.519Z,4.60
2022-10-10T01:13:03.474Z,4.47
2022-10-10T01:15:43.480Z,4.30
2022-10-10T01:18:22.495Z,4.47
2022-10-10T01:21:17.272Z,4.50
2022-10-10T01:24:09.628Z,4.53
2022-10-10T01:27:15.593Z,4.63
2022-10-10T01:29:48.310Z,4.97
2022-10-10T01:32:21.659Z,4.90
2022-10-10T01:35:08.815Z,4.50
2022-10-10T01:37:44.023Z,5.43
2022-10-10T01:40:18.936Z,5.80
2022-10-10T01:42:52.605Z,5.37
2022-10-10T01:45:23.457Z,5.73
2022-10-10T01:47:53.575Z,5.50
2022-10-10T01:50:25.132Z,5.60
2022-10-10T01:53:05.699Z,8.53
2022-10-10T01:55:48.259Z,5.50
2022-10-10T01:58:38.695Z,5.53
2022-10-10T02:01:17.344Z,5.07
2022-10-10T02:03:48.729Z,5.60
2022-10-10T02:06:26.578Z,5.63
2022-10-10T02:08:59.612Z,5.23
2022-10-10T02:11:31.978Z,5.13
2022-10-10T02:14:03.888Z,5.40
2022-10-10T02:16:38.578Z,4.93
2022-10-10T02:19:10.348Z,5.40
2022-10-10T02:21:39.923Z,5.07
2022-10-10T02:24:11.703Z,5.10
2022-10-10T02:26:40.808Z,4.77
2022-10-10T02:29:12.700Z,4.87
2022-10-10T02:31:44.780Z,4.30
2022-10-10T02:34:14.811Z,5.00
2022-10-10T02:36:45.744Z,5.23
2022-10-10T02:39:15.179Z,5.40
2022-10-10T02:41:45.332Z,6.00
2022-10-10T02:44:14.541Z,6.27
2022-10-10T02:46:43.644Z,5.50
2022-10-10T02:49:12.623Z,5.90
2022-10-10T02:51:40.632Z,6.33
2022-10-10T02:54:08.524Z,5.70
2022-10-10T02:56:36.184Z,6.10
2022-10-10T02:59:03.993Z,6.40
2022-10-10T03:01:31.774Z,6.50
2022-10-10T03:04:01.711Z,6.03
2022-10-10T03:06:29.530Z,6.17
2022-10-10T03:08:57.205Z,5.60
2022-10-10T03:11:24.868Z,6.37
2022-10-10T03:13:52.550Z,5.03
2022-10-10T03:16:20.203Z,6.07
2022-10-10T03:18:47.882Z,5.70
2022-10-10T03:21:16.952Z,5.97
2022-10-10T03:23:44.808Z,6.17
2022-10-10T03:26:12.524Z,6.20
2022-10-10T03:28:40.463Z,6.47
2022-10-10T03:31:08.170Z,6.70
2022-10-10T03:33:36.261Z,6.07
2022-10-10T03:36:04.866Z,6.07
2022-10-10T03:38:33.899Z,7.70
2022-10-10T03:41:01.583Z,8.40
2022-10-10T03:43:29.280Z,7.87
2022-10-10T03:45:56.991Z,9.30
2022-10-10T03:48:24.668Z,8.33
2022-10-10T03:50:52.361Z,10.00
2022-10-10T03:53:20.039Z,10.80
2022-10-10T03:55:49.094Z,12.40
2022-10-10T03:58:20.156Z,11.27
2022-10-10T04:00:55.799Z,11.37
2022-10-10T04:03:23.632Z,10.43
2022-10-10T04:05:51.448Z,11.80
2022-10-10T04:08:20.044Z,12.30
2022-10-10T04:10:50.893Z,11.50
2022-10-10T04:13:18.795Z,12.60
2022-10-10T04:15:46.525Z,12.80
2022-10-10T04:18:14.466Z,14.37
2022-10-10T04:20:42.152Z,12.60
2022-10-10T04:23:09.891Z,12.87
2022-10-10T04:25:37.590Z,12.67
2022-10-10T04:28:06.689Z,13.10
2022-10-10T04:30:35.524Z,14.07
2022-10-10T04:33:03.219Z,12.47
2022-10-10T04:35:30.917Z,13.63
2022-10-10T04:37:58.693Z,13.70
2022-10-10T04:40:26.965Z,12.50
2022-10-10T04:42:55.104Z,12.67
2022-10-10T04:45:26.407Z,11.40
2022-10-10T04:47:54.296Z,12.37
2022-10-10T04:50:22.828Z,12.80
2022-10-10T04:52:50.735Z,11.97
2022-10-10T04:55:18.847Z,12.07
2022-10-10T04:57:46.841Z,12.20
2022-10-10T05:00:15.089Z,13.53
2022-10-10T05:02:44.134Z,13.37
2022-10-10T05:05:11.932Z,12.87
2022-10-10T05:07:39.629Z,11.97
2022-10-10T05:10:08.004Z,12.57
2022-10-10T05:12:35.688Z,13.23
2022-10-10T05:15:03.461Z,12.23
2022-10-10T05:17:31.116Z,11.70
2022-10-10T05:20:00.245Z,12.07
2022-10-10T05:22:27.953Z,11.73
2022-10-10T05:24:55.883Z,11.67
2022-10-10T05:27:23.562Z,11.90
2022-10-10T05:29:51.219Z,10.90
2022-10-10T05:32:18.912Z,10.67
2022-10-10T05:34:46.570Z,11.27
2022-10-10T05:37:15.907Z,11.73
2022-10-10T05:39:45.039Z,11.30
2022-10-10T05:42:13.960Z,11.10
2022-10-10T05:44:41.823Z,11.23
2022-10-10T05:47:09.581Z,10.57
2022-10-10T05:49:37.252Z,11.53
2022-10-10T05:52:04.939Z,10.60
2022-10-10T05:54:34.090Z,10.63
2022-10-10T05:57:01.770Z,11.00
2022-10-10T05:59:30.304Z,10.80
2022-10-10T06:01:58.395Z,11.77
2022-10-10T06:04:26.124Z,11.00
2022-10-10T06:06:53.891Z,10.30
2022-10-10T06:09:21.573Z,10.40
2022-10-10T06:11:50.608Z,11.33
2022-10-10T06:14:18.896Z,11.07
2022-10-10T06:16:46.580Z,11.73
2022-10-10T06:19:15.255Z,9.60
2022-10-10T06:21:43.057Z,10.57
2022-10-10T06:24:11.623Z,9.90
2022-10-10T06:26:39.294Z,9.67
2022-10-10T06:29:08.392Z,10.00
2022-10-10T06:31:39.329Z,10.10
2022-10-10T06:34:07.190Z,9.47
2022-10-10T06:36:35.230Z,10.10
2022-10-10T06:39:02.924Z,10.03
2022-10-10T06:41:30.603Z,9.47
2022-10-10T06:43:58.445Z,9.50
2022-10-10T06:46:27.617Z,9.10
2022-10-10T06:48:55.338Z,7.87
2022-10-10T06:51:22.995Z,8.30
2022-10-10T06:53:50.960Z,7.63
2022-10-10T06:56:24.918Z,7.90
2022-10-10T06:58:55.243Z,8.47
2022-10-10T07:01:25.072Z,7.47
2022-10-10T07:03:54.227Z,8.27
2022-10-10T07:06:22.222Z,7.90
2022-10-10T07:08:49.903Z,7.90
2022-10-10T07:11:17.602Z,7.87
2022-10-10T07:13:45.252Z,7.27
2022-10-10T07:16:12.982Z,8.40
2022-10-10T07:18:40.672Z,7.43
2022-10-10T07:21:10.434Z,6.97
2022-10-10T07:23:39.317Z,7.90
2022-10-10T07:26:10.754Z,7.73
2022-10-10T07:28:38.840Z,7.33
2022-10-10T07:31:09.188Z,7.50
2022-10-10T07:33:38.673Z,7.30
2022-10-10T07:36:06.879Z,6.70
2022-10-10T07:38:36.739Z,7.50
2022-10-10T07:41:07.377Z,7.77
2022-10-10T07:43:35.139Z,8.00
2022-10-10T07:46:04.129Z,7.77
2022-10-10T07:48:33.646Z,7.47
2022-10-10T07:51:01.356Z,6.87
2022-10-10T07:53:29.064Z,7.83
2022-10-10T07:55:58.089Z,7.60
2022-10-10T07:58:25.812Z,8.03
2022-10-10T08:01:02.938Z,8.03
2022-10-10T08:03:30.796Z,7.47
2022-10-10T08:05:58.719Z,7.40
2022-10-10T08:08:26.495Z,8.67
2022-10-10T08:10:54.181Z,7.63
2022-10-10T08:13:23.227Z,7.00
2022-10-10T08:15:51.992Z,6.87
2022-10-10T08:18:20.022Z,6.27
2022-10-10T08:20:47.717Z,6.80
2022-10-10T08:23:15.531Z,6.77
2022-10-10T08:25:43.256Z,6.73
2022-10-10T08:28:10.976Z,6.30
2022-10-10T08:30:42.608Z,6.77
2022-10-10T08:33:10.309Z,6.40
2022-10-10T08:35:39.440Z,6.47
2022-10-10T08:38:08.895Z,6.27
2022-10-10T08:40:43.906Z,6.53
2022-10-10T08:43:21.770Z,7.80
2022-10-10T08:45:53.964Z,6.33
2022-10-10T08:48:25.309Z,7.73
2022-10-10T08:50:58.129Z,6.87
2022-10-10T08:53:31.371Z,7.00
2022-10-10T08:56:00.099Z,7.40
2022-10-10T08:58:32.089Z,7.33
2022-10-10T09:01:08.082Z,6.43
2022-10-10T09:03:41.840Z,5.93
2022-10-10T09:06:27.938Z,6.60
2022-10-10T09:09:06.183Z,7.00
2022-10-10T09:11:45.955Z,6.00
2022-10-10T09:14:27.239Z,5.77
2022-10-10T09:17:02.725Z,5.47
2022-10-10T09:19:44.248Z,6.37
2022-10-10T09:22:17.408Z,5.30
2022-10-10T09:24:50.992Z,5.63
2022-10-10T09:27:23.908Z,5.77
2022-10-10T09:29:58.449Z,7.50
2022-10-10T09:32:32.237Z,5.90
2022-10-10T09:35:06.800Z,5.60
2022-10-10T09:37:47.644Z,7.60
2022-10-10T09:40:23.437Z,7.33
2022-10-10T09:42:51.558Z,4.90
2022-10-10T09:45:21.704Z,5.33
2022-10-10T09:47:54.682Z,7.00
2022-10-10T09:50:23.785Z,5.23
2022-10-10T09:52:52.893Z,5.03
2022-10-10T09:55:26.396Z,4.93
2022-10-10T09:57:56.197Z,5.23
2022-10-10T10:00:36.094Z,4.83
2022-10-10T10:03:13.808Z,6.20
2022-10-10T10:05:44.732Z,4.07
2022-10-10T10:08:26.153Z,4.67
2022-10-10T10:10:57.994Z,4.37
2022-10-10T10:13:31.925Z,5.10
2022-10-10T10:16:05.619Z,5.83
2022-10-10T10:18:40.651Z,4.53
2022-10-10T10:21:16.883Z,4.30
2022-10-10T10:23:50.320Z,4.67
2022-10-10T10:26:22.045Z,4.07
2022-10-10T10:28:51.327Z,4.55
2022-10-10T10:31:49.185Z,6.13
2022-10-10T10:34:51.814Z,5.43
2022-10-10T10:37:23.201Z,4.77
2022-10-10T10:40:09.613Z,6.40
2022-10-10T10:42:50.830Z,5.80
2022-10-10T10:45:25.617Z,5.40
2022-10-10T10:48:02.971Z,6.53
2022-10-10T10:50:44.992Z,5.20
2022-10-10T10:53:22.682Z,3.97
2022-10-10T10:55:59.861Z,4.53
2022-10-10T11:01:57.681Z,3.85
2022-10-10T11:05:17.335Z,5.32
2022-10-10T11:07:54.076Z,5.55
2022-10-10T11:10:31.508Z,4.15
2022-10-10T11:13:07.204Z,4.28
2022-10-10T11:18:33.302Z,5.70
2022-10-10T11:21:07.279Z,4.35
2022-10-10T11:23:41.828Z,4.47
2022-10-10T11:26:17.800Z,3.55
2022-10-10T11:28:50.283Z,5.50
2022-10-10T11:31:23.905Z,4.22
2022-10-10T11:33:57.391Z,5.93
2022-10-10T11:36:29.235Z,4.80
2022-10-10T11:39:03.613Z,3.80
2022-10-10T11:41:36.855Z,4.78
2022-10-10T11:44:10.097Z,4.80
2022-10-10T11:46:42.060Z,6.15
2022-10-10T11:49:18.874Z,4.93
2022-10-10T11:52:31.910Z,4.97
2022-10-10T11:55:00.511Z,6.40
2022-10-10T11:57:32.932Z,5.90
2022-10-10T12:00:06.125Z,4.20
2022-10-10T12:02:36.256Z,9.87
2022-10-10T12:05:06.002Z,7.95
2022-10-10T12:07:41.043Z,5.18
2022-10-10T12:10:19.403Z,5.05
2022-10-10T12:12:50.437Z,4.35
2022-10-10T12:15:27.038Z,4.82
2022-10-10T12:17:55.380Z,3.83
2022-10-10T12:20:34.957Z,5.13
2022-10-10T12:23:11.447Z,7.45
2022-10-10T12:25:43.043Z,4.43
2022-10-10T12:28:27.399Z,3.30
2022-10-10T12:31:28.349Z,4.22
2022-10-10T12:34:02.144Z,3.55
2022-10-10T12:36:57.399Z,3.38
2022-10-10T12:39:37.673Z,3.45
2022-10-10T12:42:27.969Z,4.47
2022-10-10T12:44:55.713Z,3.90
2022-10-10T12:48:03.878Z,4.05
2022-10-10T12:50:34.405Z,5.03
2022-10-10T12:53:05.604Z,5.43
2022-10-10T12:55:42.919Z,4.97
2022-10-10T12:58:26.943Z,4.07
2022-10-10T13:00:58.160Z,5.13
2022-10-10T13:03:31.673Z,4.53
2022-10-10T13:06:04.702Z,4.88
2022-10-10T13:08:33.469Z,6.15
2022-10-10T13:11:07.983Z,4.22
2022-10-10T13:13:37.176Z,6.18
2022-10-10T13:16:10.185Z,5.82
2022-10-10T13:18:40.173Z,6.10
2022-10-10T13:21:10.327Z,5.93
2022-10-10T13:23:42.556Z,3.67
2022-10-10T13:26:21.362Z,4.50
2022-10-10T13:28:51.336Z,5.60
2022-10-10T13:31:19.767Z,5.93
2022-10-10T13:33:48.267Z,3.75
2022-10-10T13:36:21.610Z,5.68
2022-10-10T13:38:50.703Z,3.92
2022-10-10T13:41:19.197Z,6.57
2022-10-10T13:43:46.923Z,4.65
2022-10-10T13:46:23.109Z,5.05
2022-10-10T13:48:51.710Z,5.10
2022-10-10T13:51:20.239Z,7.90
2022-10-10T13:53:53.462Z,5.07
2022-10-10T13:56:25.252Z,5.78
2022-10-10T13:58:54.856Z,5.05
2022-10-10T14:01:30.594Z,6.97
2022-10-10T14:04:02.946Z,5.10
2022-10-10T14:06:30.887Z,6.30
2022-10-10T14:09:08.031Z,4.68
2022-10-10T14:11:35.905Z,6.03
2022-10-10T14:14:09.101Z,8.35
2022-10-10T14:16:38.196Z,9.53
2022-10-10T14:19:18.251Z,6.87
2022-10-10T14:21:46.135Z,5.57
2022-10-10T14:24:16.016Z,8.47
2022-10-10T14:26:44.249Z,6.60
2022-10-10T14:29:14.274Z,3.53
2022-10-10T14:31:43.979Z,6.50
2022-10-10T14:34:12.811Z,6.00
2022-10-10T14:36:43.251Z,4.80
2022-10-10T14:39:14.127Z,5.87
2022-10-10T14:41:41.907Z,4.65
2022-10-10T14:44:09.943Z,7.70
2022-10-10T14:46:38.408Z,7.47
2022-10-10T14:49:12.335Z,8.23
2022-10-10T14:51:40.778Z,6.40
2022-10-10T14:54:10.635Z,4.90
2022-10-10T14:57:08.237Z,4.05
2022-10-10T14:59:49.448Z,6.23
2022-10-10T15:02:19.707Z,4.63
2022-10-10T15:04:48.858Z,5.90
2022-10-10T15:07:17.208Z,5.70
2022-10-10T15:10:09.568Z,5.03
2022-10-10T15:12:33.903Z,4.23
2022-10-10T15:15:01.595Z,3.00
2022-10-10T15:17:30.444Z,4.77
2022-10-10T15:19:59.536Z,7.30
2022-10-10T15:22:27.898Z,4.47
2022-10-10T15:24:55.640Z,5.27
2022-10-10T15:27:23.666Z,7.27
2022-10-10T15:29:51.568Z,10.70
2022-10-10T15:32:19.284Z,8.70
2022-10-10T15:34:49.108Z,10.07
2022-10-10T15:37:19.096Z,10.20
2022-10-10T15:39:47.959Z,10.87
2022-10-10T15:42:22.190Z,4.97
2022-10-10T15:45:03.637Z,6.07
2022-10-10T15:47:31.394Z,4.10
2022-10-10T15:49:59.114Z,5.50
2022-10-10T15:52:28.201Z,5.47
2022-10-10T15:54:56.232Z,6.47
2022-10-10T15:57:23.892Z,4.67
2022-10-10T15:59:51.602Z,4.47
2022-10-10T16:02:19.420Z,5.20
2022-10-10T16:04:47.142Z,4.57
2022-10-10T16:07:34.666Z,5.77
2022-10-10T16:10:04.234Z,4.63
2022-10-10T16:12:31.993Z,5.87
2022-10-10T16:15:02.311Z,7.53
2022-10-10T16:17:33.790Z,5.83
2022-10-10T16:20:01.508Z,7.47
2022-10-10T16:22:29.187Z,6.37
2022-10-10T16:25:21.357Z,6.67
2022-10-10T16:27:46.178Z,6.27
2022-10-10T16:30:14.324Z,6.43
2022-10-10T16:32:42.841Z,4.77
2022-10-10T16:35:11.553Z,6.50
2022-10-10T16:37:39.587Z,6.27
2022-10-10T16:40:08.860Z,5.57
2022-10-10T16:42:36.567Z,5.40
2022-10-10T16:45:06.776Z,7.10
2022-10-10T16:47:34.757Z,6.73
2022-10-10T16:50:02.532Z,5.70
2022-10-10T16:52:30.473Z,7.43
2022-10-10T16:54:58.178Z,6.20
2022-10-10T16:57:25.873Z,5.07
2022-10-10T16:59:53.583Z,7.60
2022-10-10T17:02:24.437Z,11.73
2022-10-10T17:04:53.079Z,9.30
2022-10-10T17:07:20.831Z,8.67
2022-10-10T17:09:48.507Z,7.63
2022-10-10T17:12:16.562Z,5.63
2022-10-10T17:14:44.230Z,5.23
2022-10-10T17:17:13.057Z,5.10
2022-10-10T17:19:42.787Z,7.57
2022-10-10T17:22:10.496Z,6.60
2022-10-10T17:24:38.194Z,7.43
2022-10-10T17:27:06.061Z,7.60
2022-10-10T17:29:33.880Z,10.43
2022-10-10T17:32:05.969Z,17.70
2022-10-10T17:34:34.670Z,19.63
2022-10-10T17:37:04.112Z,11.93
2022-10-10T17:39:32.004Z,7.10
2022-10-10T17:42:00.189Z,7.77
2022-10-10T17:44:28.124Z,6.73
2022-10-10T17:46:55.823Z,8.43
2022-10-10T17:49:25.237Z,12.90
2022-10-10T17:51:52.989Z,15.27
2022-10-10T17:54:23.159Z,10.10
2022-10-10T17:56:50.924Z,5.17
2022-10-10T17:59:20.338Z,4.87
2022-10-10T18:01:48.046Z,5.50
2022-10-10T18:04:16.492Z,6.80
2022-10-10T18:06:44.359Z,5.17
2022-10-10T18:09:12.257Z,6.97
2022-10-10T18:11:41.624Z,4.77
2022-10-10T18:14:09.333Z,4.10
2022-10-10T18:16:37.354Z,3.47
2022-10-10T18:19:07.286Z,5.53
2022-10-10T18:21:35.721Z,3.87
2022-10-10T18:24:03.411Z,4.90
2022-10-10T18:26:32.378Z,5.07
2022-10-10T18:29:01.730Z,5.23
2022-10-10T18:31:32.916Z,5.57
2022-10-10T18:34:01.086Z,5.40
2022-10-10T18:36:31.717Z,5.70
2022-10-10T18:39:00.448Z,6.30
2022-10-10T18:41:33.731Z,7.20
2022-10-10T18:44:04.508Z,3.40
2022-10-10T18:46:32.612Z,6.20
2022-10-10T18:49:01.491Z,5.67
2022-10-10T18:51:30.390Z,7.47
2022-10-10T18:54:02.003Z,5.77
2022-10-10T18:56:31.570Z,5.13
2022-10-10T18:59:02.465Z,5.50
2022-10-10T19:01:33.129Z,4.57
2022-10-10T19:04:01.301Z,6.03
2022-10-10T19:06:29.423Z,8.20
2022-10-10T19:08:58.990Z,7.03
2022-10-10T19:11:28.639Z,9.60
2022-10-10T19:13:57.564Z,9.20
2022-10-10T19:16:27.000Z,8.83
2022-10-10T19:18:58.181Z,8.23
2022-10-10T19:21:27.409Z,8.47
2022-10-10T19:23:55.468Z,7.00
2022-10-10T19:26:23.447Z,7.97
2022-10-10T19:28:51.250Z,5.43
2022-10-10T19:31:21.102Z,5.27
2022-10-10T19:33:53.210Z,4.33
2022-10-10T19:36:20.914Z,6.43
2022-10-10T19:38:48.655Z,6.57
2022-10-10T19:41:16.929Z,5.20
2022-10-10T19:43:47.445Z,5.60
2022-10-10T19:46:16.835Z,5.53
2022-10-10T19:48:44.814Z,5.97
2022-10-10T19:51:15.955Z,5.90
2022-10-10T19:53:44.834Z,3.07
2022-10-10T19:56:15.749Z,3.83
2022-10-10T19:58:44.319Z,4.27
2022-10-10T20:01:14.096Z,3.60
2022-10-10T20:03:42.432Z,6.20
2022-10-10T20:06:10.148Z,6.03
2022-10-10T20:08:39.678Z,4.33
2022-10-10T20:11:07.820Z,6.57
2022-10-10T20:13:35.888Z,4.53
2022-10-10T20:16:06.221Z,4.47
2022-10-10T20:18:35.582Z,4.20
2022-10-10T20:21:11.069Z,4.47
2022-10-10T20:23:44.143Z,5.67
2022-10-10T20:26:15.020Z,4.33
2022-10-10T20:28:44.765Z,4.53
2022-10-10T20:31:18.687Z,4.90
2022-10-10T20:33:47.079Z,4.37
2022-10-10T20:36:15.255Z,4.57
2022-10-10T20:38:44.665Z,5.33
2022-10-10T20:41:12.751Z,5.83
2022-10-10T20:43:40.596Z,5.97
2022-10-10T20:46:10.317Z,11.53
2022-10-10T20:48:38.767Z,10.17
2022-10-10T20:51:09.007Z,7.00
2022-10-10T20:53:38.253Z,6.83
2022-10-10T20:56:08.967Z,6.00
2022-10-10T20:58:38.836Z,5.20
2022-10-10T21:01:10.048Z,4.77
2022-10-10T21:03:38.035Z,6.00
2022-10-10T21:06:08.540Z,6.20
2022-10-10T21:08:36.651Z,5.57
2022-10-10T21:11:06.303Z,4.77
2022-10-10T21:13:36.572Z,6.73
2022-10-10T21:16:07.724Z,4.80
2022-10-10T21:18:35.550Z,5.33
2022-10-10T21:21:05.444Z,5.43
2022-10-10T21:23:37.504Z,4.83
2022-10-10T21:26:06.753Z,6.07
2022-10-10T21:28:37.114Z,5.83
2022-10-10T21:31:06.061Z,5.83
2022-10-10T21:33:35.266Z,5.40
2022-10-10T21:36:03.365Z,4.97
2022-10-10T21:38:31.647Z,8.17
2022-10-10T21:41:06.146Z,5.97
2022-10-10T21:43:38.262Z,5.03
2022-10-10T21:46:08.195Z,6.13
2022-10-10T21:48:36.149Z,4.93
2022-10-10T21:51:03.872Z,4.77
2022-10-10T21:53:32.116Z,5.87
2022-10-10T21:55:59.955Z,5.93
2022-10-10T21:58:27.636Z,4.43
2022-10-10T22:00:56.769Z,8.87
2022-10-10T22:03:24.449Z,5.30
2022-10-10T22:05:52.202Z,4.90
2022-10-10T22:08:19.907Z,7.40
2022-10-10T22:10:47.627Z,6.40
2022-10-10T22:13:15.327Z,5.40
2022-10-10T22:15:43.240Z,6.30
2022-10-10T22:18:12.329Z,5.80
2022-10-10T22:20:40.078Z,5.20
2022-10-10T22:23:07.792Z,5.23
2022-10-10T22:25:35.481Z,5.50
2022-10-10T22:28:06.193Z,5.33
2022-10-10T22:30:34.238Z,6.10
2022-10-10T22:33:02.160Z,6.67
2022-10-10T22:35:31.619Z,6.40
2022-10-10T22:37:59.383Z,11.37
2022-10-10T22:40:27.623Z,8.87
2022-10-10T22:42:55.605Z,9.30
2022-10-10T22:45:23.319Z,6.87
2022-10-10T22:47:51.030Z,7.07
2022-10-10T22:50:19.394Z,6.27
2022-10-10T22:52:48.487Z,5.77
2022-10-10T22:55:18.635Z,5.87
2022-10-10T22:57:46.514Z,7.03
2022-10-10T23:00:15.764Z,6.33
2022-10-10T23:02:43.458Z,6.97
2022-10-10T23:05:11.232Z,5.60
2022-10-10T23:07:38.956Z,6.23
2022-10-10T23:10:09.612Z,6.07
2022-10-10T23:12:37.684Z,6.03
2022-10-10T23:15:06.220Z,5.57
2022-10-10T23:17:33.919Z,5.63
2022-10-10T23:20:01.626Z,6.37
2022-10-10T23:22:29.341Z,7.77
2022-10-10T23:24:57.043Z,7.00
2022-10-10T23:27:26.113Z,6.53
2022-10-10T23:29:53.817Z,7.17
2022-10-10T23:32:22.951Z,6.57
2022-10-10T23:34:50.661Z,6.40
2022-10-10T23:37:18.370Z,6.23
2022-10-10T23:39:46.066Z,9.47
2022-10-10T23:42:13.787Z,6.10
2022-10-10T23:44:42.849Z,7.03
2022-10-10T23:47:10.572Z,5.83
2022-10-10T23:49:38.326Z,5.97
2022-10-10T23:52:06.274Z,9.80
2022-10-10T23:54:34.114Z,7.87
2022-10-10T23:57:01.848Z,8.60
2022-10-10T23:59:29.681Z,7.70
